createdAt,value
2019-04-30T00:01:58.863Z,60.03
2019-04-30T00:04:37.316Z,57.76
2019-04-30T00:07:01.943Z,56.71
2019-04-30T00:09:32.059Z,56.37
2019-04-30T00:12:01.521Z,55.45
2019-04-30T00:14:37.241Z,55.12
2019-04-30T00:17:01.967Z,55.36
2019-04-30T00:19:31.314Z,55.64
2019-04-30T00:22:00.716Z,55.52
2019-04-30T00:24:30.061Z,55.23
2019-04-30T00:26:59.389Z,55.01
2019-04-30T00:29:30.968Z,55.59
2019-04-30T00:32:04.409Z,55.08
2019-04-30T00:34:35.247Z,55.52
2019-04-30T00:37:01.960Z,55.51
2019-04-30T00:39:31.290Z,55.03
2019-04-30T00:42:00.666Z,54.88
2019-04-30T00:44:30.027Z,55.01
2019-04-30T00:47:00.701Z,54.83
2019-04-30T00:49:30.428Z,55.28
2019-04-30T00:51:59.762Z,55.04
2019-04-30T00:54:30.838Z,55.09
2019-04-30T00:57:04.262Z,54.91
2019-04-30T00:59:31.364Z,55.17
2019-04-30T01:02:32.063Z,55.06
2019-04-30T01:05:05.313Z,55.09
2019-04-30T01:07:31.537Z,55.45
2019-04-30T01:10:00.877Z,57.09
2019-04-30T01:12:35.944Z,58.69
2019-04-30T01:15:01.705Z,59.07
2019-04-30T01:17:32.359Z,59.72
2019-04-30T01:20:01.790Z,60.80
2019-04-30T01:22:32.915Z,60.84
2019-04-30T01:25:08.922Z,60.58
2019-04-30T01:27:33.625Z,60.43
2019-04-30T01:30:04.372Z,59.92
2019-04-30T01:32:33.714Z,60.69
2019-04-30T01:35:03.043Z,65.66
2019-04-30T01:37:32.945Z,69.31
2019-04-30T01:40:03.053Z,71.39
2019-04-30T01:42:33.678Z,72.01
2019-04-30T01:45:03.157Z,71.95
2019-04-30T01:47:32.499Z,71.79
2019-04-30T01:50:04.831Z,72.45
2019-04-30T01:52:50.377Z,72.87
2019-04-30T01:55:21.355Z,72.95
2019-04-30T01:57:59.550Z,73.39
2019-04-30T02:00:43.265Z,73.55
2019-04-30T02:03:12.594Z,73.98
2019-04-30T02:05:42.367Z,74.03
2019-04-30T02:08:11.743Z,73.96
2019-04-30T02:10:41.098Z,74.47
2019-04-30T02:13:10.435Z,74.79
2019-04-30T02:15:39.797Z,75.23
2019-04-30T02:18:09.146Z,75.38
2019-04-30T02:20:38.515Z,75.74
2019-04-30T02:23:09.639Z,76.01
2019-04-30T02:25:39.874Z,76.11
2019-04-30T02:28:09.295Z,76.44
2019-04-30T02:30:40.431Z,76.49
2019-04-30T02:33:09.798Z,76.15
2019-04-30T02:36:04.100Z,76.82
2019-04-30T02:38:35.659Z,76.31
2019-04-30T02:41:05.695Z,74.00
2019-04-30T02:43:35.336Z,73.36
2019-04-30T02:46:05.928Z,72.96
2019-04-30T02:48:39.906Z,73.37
2019-04-30T02:51:12.351Z,73.09
2019-04-30T02:54:09.922Z,72.54
2019-04-30T02:56:40.406Z,72.30
2019-04-30T02:59:10.435Z,72.10
2019-04-30T03:01:40.628Z,71.98
2019-04-30T03:04:10.257Z,71.64
2019-04-30T03:06:40.460Z,71.81
2019-04-30T03:09:10.800Z,72.08
2019-04-30T03:11:41.028Z,72.29
2019-04-30T03:14:10.999Z,71.96
2019-04-30T03:17:05.654Z,71.13
2019-04-30T03:20:00.231Z,71.00
2019-04-30T03:22:30.314Z,71.17
2019-04-30T03:24:59.917Z,71.02
2019-04-30T03:27:30.168Z,70.82
2019-04-30T03:30:00.194Z,71.06
2019-04-30T03:32:31.670Z,72.21
2019-04-30T03:35:03.166Z,74.91
2019-04-30T03:37:31.878Z,78.19
2019-04-30T03:40:04.255Z,79.30
2019-04-30T03:42:40.393Z,79.42
2019-04-30T03:45:10.333Z,78.81
2019-04-30T03:47:42.968Z,77.39
2019-04-30T03:50:11.026Z,77.78
2019-04-30T03:52:40.400Z,78.02
2019-04-30T03:55:09.834Z,78.67
2019-04-30T03:57:39.868Z,78.14
2019-04-30T04:00:11.404Z,78.63
2019-04-30T04:02:45.431Z,78.58
2019-04-30T04:05:22.615Z,78.32
2019-04-30T04:08:00.021Z,77.74
2019-04-30T04:10:40.440Z,76.94
2019-04-30T04:13:10.373Z,76.25
2019-04-30T04:15:40.199Z,76.03
2019-04-30T04:18:10.737Z,76.03
2019-04-30T04:20:42.940Z,75.93
2019-04-30T04:23:11.773Z,75.80
2019-04-30T04:25:41.095Z,75.56
2019-04-30T04:28:10.464Z,75.76
2019-04-30T04:30:42.894Z,75.76
2019-04-30T04:33:10.909Z,74.93
2019-04-30T04:35:40.306Z,70.61
2019-04-30T04:38:12.354Z,65.27
2019-04-30T04:40:40.702Z,63.76
2019-04-30T04:43:10.557Z,62.05
2019-04-30T04:45:43.685Z,60.13
2019-04-30T04:48:11.091Z,59.92
2019-04-30T04:50:40.433Z,62.21
2019-04-30T04:53:11.483Z,61.50
2019-04-30T04:55:40.860Z,61.14
2019-04-30T04:58:12.962Z,61.36
2019-04-30T05:00:41.316Z,61.47
2019-04-30T05:03:20.157Z,58.82
2019-04-30T05:05:50.090Z,58.00
2019-04-30T05:08:19.527Z,59.10
2019-04-30T05:10:49.517Z,58.40
2019-04-30T05:13:19.290Z,58.33
2019-04-30T05:15:51.303Z,57.92
2019-04-30T05:18:19.692Z,53.74
2019-04-30T05:20:49.148Z,52.06
2019-04-30T05:23:21.586Z,54.58
2019-04-30T05:25:49.610Z,55.90
2019-04-30T05:28:19.093Z,56.67
2019-04-30T05:30:49.405Z,53.49
2019-04-30T05:33:18.834Z,52.72
2019-04-30T05:35:49.589Z,53.51
2019-04-30T05:38:19.097Z,53.31
2019-04-30T05:40:49.532Z,54.42
2019-04-30T05:43:19.366Z,53.12
2019-04-30T05:45:49.590Z,51.64
2019-04-30T05:48:18.955Z,51.64
2019-04-30T05:50:51.504Z,53.66
2019-04-30T05:53:19.489Z,56.28
2019-04-30T05:55:49.409Z,58.24
2019-04-30T05:58:19.704Z,59.90
2019-04-30T06:00:49.904Z,61.02
2019-04-30T06:03:27.598Z,58.66
2019-04-30T06:05:50.506Z,57.81
2019-04-30T06:08:21.966Z,56.53
2019-04-30T06:10:56.898Z,57.21
2019-04-30T06:13:45.175Z,57.07
2019-04-30T06:16:18.805Z,55.10
2019-04-30T06:18:48.606Z,55.06
2019-04-30T06:21:21.330Z,54.30
2019-04-30T06:23:49.319Z,53.97
2019-04-30T06:26:20.700Z,52.92
2019-04-30T06:28:50.071Z,50.54
2019-04-30T06:31:31.643Z,50.54
2019-04-30T06:33:50.560Z,51.20
2019-04-30T06:36:20.701Z,53.33
2019-04-30T06:38:50.068Z,52.81
2019-04-30T06:41:19.844Z,51.99
2019-04-30T06:43:51.865Z,52.36
2019-04-30T06:46:21.242Z,52.37
2019-04-30T06:48:51.417Z,50.78
2019-04-30T06:51:20.858Z,50.95
2019-04-30T06:53:51.362Z,48.35
2019-04-30T06:56:20.880Z,47.91
2019-04-30T06:58:52.423Z,51.12
2019-04-30T07:01:21.337Z,51.12
2019-04-30T07:03:50.732Z,52.13
2019-04-30T07:06:29.478Z,52.71
2019-04-30T07:09:12.835Z,52.75
2019-04-30T07:11:46.812Z,53.51
2019-04-30T07:14:16.149Z,54.36
2019-04-30T07:16:45.547Z,55.38
2019-04-30T07:19:15.002Z,55.70
2019-04-30T07:21:45.296Z,55.00
2019-04-30T07:24:14.907Z,54.54
2019-04-30T07:26:44.269Z,54.56
2019-04-30T07:29:13.670Z,55.09
2019-04-30T07:31:43.055Z,56.51
2019-04-30T07:34:12.390Z,57.62
2019-04-30T07:36:46.875Z,57.54
2019-04-30T07:39:12.809Z,57.65
2019-04-30T07:41:42.174Z,57.25
2019-04-30T07:46:45.257Z,57.55
2019-04-30T07:49:13.668Z,57.70
2019-04-30T07:51:43.616Z,57.63
2019-04-30T07:54:13.381Z,57.48
2019-04-30T07:56:42.741Z,57.21
2019-04-30T07:59:12.103Z,57.72
2019-04-30T08:02:00.769Z,57.62
2019-04-30T08:04:30.544Z,58.31
2019-04-30T08:07:01.695Z,58.07
2019-04-30T08:09:35.037Z,57.21
2019-04-30T08:09:39.250Z,57.12
2019-04-30T08:12:02.194Z,57.58
2019-04-30T08:14:31.599Z,56.91
2019-04-30T08:17:00.925Z,55.83
2019-04-30T08:19:30.297Z,54.99
2019-04-30T08:21:59.659Z,54.41
2019-04-30T08:24:29.262Z,54.48
2019-04-30T08:26:59.052Z,50.78
2019-04-30T08:29:29.758Z,49.77
2019-04-30T08:31:59.409Z,53.94
2019-04-30T08:34:29.304Z,53.73
2019-04-30T08:36:59.459Z,52.24
2019-04-30T08:39:29.513Z,47.81
2019-04-30T08:42:00.406Z,46.90
2019-04-30T08:44:29.826Z,47.73
2019-04-30T08:46:59.204Z,43.65
2019-04-30T08:49:30.583Z,41.98
2019-04-30T08:51:59.639Z,41.76
2019-04-30T08:54:29.538Z,41.29
2019-04-30T08:56:59.613Z,41.35
2019-04-30T08:59:29.568Z,41.40
2019-04-30T09:02:12.266Z,40.97
2019-04-30T09:04:30.233Z,42.04
2019-04-30T09:07:00.009Z,40.99
2019-04-30T09:09:31.990Z,40.64
2019-04-30T09:12:01.553Z,41.80
2019-04-30T09:14:32.564Z,43.98
2019-04-30T09:17:01.909Z,45.48
2019-04-30T09:19:31.477Z,45.93
2019-04-30T09:22:00.846Z,50.15
2019-04-30T09:24:31.043Z,55.19
2019-04-30T09:27:00.742Z,58.44
2019-04-30T09:29:30.119Z,59.10
2019-04-30T09:31:59.623Z,59.21
2019-04-30T09:34:29.253Z,59.29
2019-04-30T09:36:59.013Z,61.23
2019-04-30T09:39:29.610Z,62.45
2019-04-30T09:41:59.666Z,61.93
2019-04-30T09:44:30.900Z,62.04
2019-04-30T09:47:00.350Z,61.82
2019-04-30T09:49:29.708Z,62.48
2019-04-30T09:51:59.676Z,62.54
2019-04-30T09:54:30.430Z,62.15
2019-04-30T09:57:00.153Z,61.12
2019-04-30T09:59:29.515Z,61.54
2019-04-30T10:01:58.901Z,61.85
2019-04-30T10:04:30.290Z,61.47
2019-04-30T10:06:59.657Z,61.82
2019-04-30T10:09:29.474Z,61.90
2019-04-30T10:12:11.944Z,62.51
2019-04-30T10:14:41.398Z,62.79
2019-04-30T10:17:35.031Z,62.54
2019-04-30T10:20:05.310Z,61.73
2019-04-30T10:22:34.672Z,60.38
2019-04-30T10:25:04.051Z,59.52
2019-04-30T10:27:33.452Z,59.03
2019-04-30T10:30:02.781Z,58.49
2019-04-30T10:32:32.118Z,58.43
2019-04-30T10:35:01.482Z,59.06
2019-04-30T10:37:30.809Z,59.24
2019-04-30T10:40:00.307Z,60.37
2019-04-30T10:42:29.698Z,63.33
2019-04-30T10:45:00.292Z,71.01
2019-04-30T10:47:32.460Z,75.42
2019-04-30T10:50:00.977Z,75.34
2019-04-30T10:52:30.315Z,74.95
2019-04-30T10:54:59.672Z,76.36
2019-04-30T10:57:29.165Z,79.16
2019-04-30T10:59:58.773Z,79.15
2019-04-30T11:02:30.934Z,76.98
2019-04-30T11:04:59.938Z,68.87
2019-04-30T11:07:29.298Z,76.75
2019-04-30T11:09:58.942Z,83.03
2019-04-30T11:12:29.193Z,78.91
2019-04-30T11:14:58.891Z,82.65
2019-04-30T11:17:30.077Z,81.39
2019-04-30T11:19:59.578Z,82.56
2019-04-30T11:22:29.293Z,85.39
2019-04-30T11:25:02.362Z,83.26
2019-04-30T11:27:30.933Z,82.05
2019-04-30T11:30:03.314Z,84.25
2019-04-30T11:32:31.808Z,84.52
2019-04-30T11:35:01.258Z,83.52
2019-04-30T11:37:30.611Z,82.84
2019-04-30T11:39:59.964Z,83.15
2019-04-30T11:42:32.088Z,80.75
2019-04-30T11:45:00.911Z,78.35
2019-04-30T11:47:34.696Z,65.47
2019-04-30T11:50:05.650Z,68.31
2019-04-30T11:52:34.992Z,73.02
2019-04-30T11:55:04.972Z,64.12
2019-04-30T11:57:34.427Z,72.52
2019-04-30T12:00:04.225Z,75.00
2019-04-30T12:02:42.795Z,70.37
2019-04-30T12:05:14.597Z,68.14
2019-04-30T12:07:52.671Z,64.44
2019-04-30T12:10:26.781Z,61.29
2019-04-30T12:12:56.474Z,52.73
2019-04-30T12:15:25.853Z,51.07
2019-04-30T12:17:55.246Z,50.12
2019-04-30T12:20:24.588Z,47.78
2019-04-30T12:22:53.927Z,48.39
2019-04-30T12:25:23.298Z,47.29
2019-04-30T12:27:52.631Z,43.92
2019-04-30T12:30:22.364Z,45.41
2019-04-30T12:32:53.740Z,44.82
2019-04-30T12:35:23.146Z,44.22
2019-04-30T12:37:58.912Z,42.85
2019-04-30T12:40:30.077Z,42.62
2019-04-30T12:43:05.128Z,35.78
2019-04-30T12:45:34.483Z,34.77
2019-04-30T12:48:09.625Z,35.60
2019-04-30T12:51:03.983Z,32.96
2019-04-30T12:54:01.727Z,32.57
2019-04-30T12:57:15.077Z,32.49
2019-04-30T12:59:44.786Z,32.23
2019-04-30T13:02:16.422Z,31.85
2019-04-30T13:04:49.309Z,31.81
2019-04-30T13:07:20.631Z,30.63
2019-04-30T13:09:50.559Z,29.60
2019-04-30T13:12:20.812Z,30.71
2019-04-30T13:14:54.458Z,29.89
2019-04-30T13:17:21.834Z,29.42
2019-04-30T13:19:51.260Z,28.35
2019-04-30T13:22:20.612Z,27.45
2019-04-30T13:24:53.703Z,27.79
2019-04-30T13:27:25.293Z,26.17
2019-04-30T13:30:00.959Z,26.52
2019-04-30T13:32:33.506Z,26.34
2019-04-30T13:35:04.541Z,27.80
2019-04-30T13:37:42.778Z,26.21
2019-04-30T13:40:20.383Z,27.28
2019-04-30T13:42:53.085Z,26.77
2019-04-30T13:45:22.489Z,28.28
2019-04-30T13:47:51.837Z,26.58
2019-04-30T13:50:21.626Z,28.06
2019-04-30T13:52:50.921Z,27.34
2019-04-30T13:55:20.302Z,28.08
2019-04-30T13:57:49.685Z,28.03
2019-04-30T14:00:24.371Z,26.99
2019-04-30T14:03:16.913Z,26.58
2019-04-30T14:05:46.258Z,27.43
2019-04-30T14:08:21.370Z,27.50
2019-04-30T14:10:50.796Z,27.62
2019-04-30T14:13:20.707Z,27.65
2019-04-30T14:15:50.039Z,27.16
2019-04-30T14:18:28.529Z,27.54
2019-04-30T14:20:50.459Z,27.02
2019-04-30T14:23:19.786Z,26.24
2019-04-30T14:25:56.265Z,26.21
2019-04-30T14:28:20.679Z,27.27
2019-04-30T14:30:50.049Z,26.95
2019-04-30T14:33:26.015Z,26.57
2019-04-30T14:35:50.949Z,26.20
2019-04-30T14:38:20.371Z,27.27
2019-04-30T14:40:50.815Z,32.72
2019-04-30T14:43:42.313Z,36.78
2019-04-30T14:46:33.269Z,38.81
2019-04-30T14:49:32.104Z,40.90
2019-04-30T14:52:02.036Z,41.62
2019-04-30T14:54:38.326Z,41.96
2019-04-30T14:57:13.952Z,42.47
2019-04-30T15:00:01.856Z,42.41
2019-04-30T15:02:36.702Z,42.33
2019-04-30T15:05:08.963Z,42.38
2019-04-30T15:07:39.695Z,42.42
2019-04-30T15:10:09.379Z,42.77
2019-04-30T15:12:38.726Z,42.87
2019-04-30T15:15:09.157Z,42.64
2019-04-30T15:17:39.268Z,42.76
2019-04-30T15:20:11.608Z,42.87
2019-04-30T15:22:46.004Z,42.76
2019-04-30T15:25:15.436Z,42.46
2019-04-30T15:27:49.124Z,42.26
2019-04-30T15:30:21.666Z,42.64
2019-04-30T15:32:50.761Z,43.00
2019-04-30T15:35:20.141Z,43.25
2019-04-30T15:37:51.296Z,43.23
2019-04-30T15:40:20.598Z,43.54
2019-04-30T15:42:51.610Z,43.59
2019-04-30T15:45:20.983Z,43.44
2019-04-30T15:47:50.346Z,43.90
2019-04-30T15:50:19.666Z,44.20
2019-04-30T15:52:49.064Z,44.46
2019-04-30T15:55:21.655Z,44.96
2019-04-30T15:58:16.151Z,45.60
2019-04-30T16:00:45.579Z,45.61
2019-04-30T16:03:20.307Z,45.95
2019-04-30T16:05:53.354Z,46.04
2019-04-30T16:08:29.098Z,45.72
2019-04-30T16:11:20.505Z,46.31
2019-04-30T16:14:18.653Z,46.75
2019-04-30T16:17:00.233Z,47.24
2019-04-30T16:19:29.594Z,47.80
2019-04-30T16:21:58.917Z,48.31
2019-04-30T16:24:28.812Z,48.84
2019-04-30T16:26:59.342Z,49.65
2019-04-30T16:29:28.900Z,49.38
2019-04-30T16:31:59.209Z,49.67
2019-04-30T16:34:30.425Z,49.92
2019-04-30T16:37:00.038Z,50.65
2019-04-30T16:39:29.360Z,51.12
2019-04-30T16:41:59.261Z,51.42
2019-04-30T16:44:28.753Z,51.99
2019-04-30T16:47:12.930Z,52.18
2019-04-30T16:49:32.299Z,52.25
2019-04-30T16:52:01.721Z,52.58
2019-04-30T16:54:31.046Z,53.03
2019-04-30T16:57:04.101Z,53.03
2019-04-30T16:59:38.795Z,53.37
2019-04-30T17:02:09.352Z,53.96
2019-04-30T17:04:49.364Z,54.27
2019-04-30T17:07:28.870Z,54.63
2019-04-30T17:10:22.513Z,55.02
2019-04-30T17:13:09.319Z,55.45
2019-04-30T17:15:39.151Z,55.75
2019-04-30T17:18:11.828Z,56.17
2019-04-30T17:20:39.660Z,56.54
2019-04-30T17:23:09.441Z,56.99
2019-04-30T17:25:38.957Z,56.74
2019-04-30T17:28:09.205Z,57.19
2019-04-30T17:30:39.266Z,57.75
2019-04-30T17:33:09.489Z,58.45
2019-04-30T17:35:39.025Z,58.38
2019-04-30T17:38:09.358Z,58.21
2019-04-30T17:40:39.013Z,58.19
2019-04-30T17:43:08.364Z,58.35
2019-04-30T17:45:39.189Z,57.67
2019-04-30T17:48:11.845Z,57.48
2019-04-30T17:50:41.174Z,57.57
2019-04-30T17:53:10.530Z,58.99
2019-04-30T17:55:39.845Z,60.96
2019-04-30T17:58:09.924Z,62.79
2019-04-30T18:00:42.159Z,63.44
2019-04-30T18:03:11.541Z,63.93
2019-04-30T18:05:40.884Z,63.38
2019-04-30T18:08:10.205Z,64.15
2019-04-30T18:10:39.835Z,63.81
2019-04-30T18:13:09.180Z,61.02
2019-04-30T18:15:38.499Z,61.79
2019-04-30T18:18:29.695Z,63.22
2019-04-30T18:21:24.078Z,63.46
2019-04-30T18:24:11.383Z,65.02
2019-04-30T18:26:47.727Z,65.53
2019-04-30T18:29:17.088Z,66.72
2019-04-30T18:31:46.488Z,67.04
2019-04-30T18:34:15.838Z,67.37
2019-04-30T18:36:45.218Z,67.72
2019-04-30T18:39:14.745Z,68.65
2019-04-30T18:41:44.074Z,68.83
2019-04-30T18:44:13.827Z,68.91
2019-04-30T18:46:43.265Z,69.29
2019-04-30T18:49:12.598Z,69.20
2019-04-30T18:51:42.662Z,69.57
2019-04-30T18:54:12.159Z,70.05
2019-04-30T18:56:41.494Z,70.30
2019-04-30T18:59:10.834Z,70.62
2019-04-30T19:01:40.532Z,70.17
2019-04-30T19:04:09.861Z,70.56
2019-04-30T19:06:39.220Z,71.07
2019-04-30T19:09:29.710Z,71.16
2019-04-30T19:12:19.299Z,71.15
2019-04-30T19:15:01.843Z,71.44
2019-04-30T19:17:49.492Z,71.45
2019-04-30T19:20:23.987Z,71.56
2019-04-30T19:22:53.348Z,71.40
2019-04-30T19:25:22.896Z,71.45
2019-04-30T19:27:52.330Z,71.58
2019-04-30T19:30:21.909Z,71.80
2019-04-30T19:32:51.246Z,71.98
2019-04-30T19:35:20.581Z,71.77
2019-04-30T19:37:50.043Z,72.41
2019-04-30T19:40:19.532Z,72.46
2019-04-30T19:42:50.931Z,72.58
2019-04-30T19:45:20.449Z,72.76
2019-04-30T19:47:49.922Z,72.77
2019-04-30T19:50:19.425Z,72.74
2019-04-30T19:52:49.051Z,72.92
2019-04-30T19:55:20.418Z,72.91
2019-04-30T19:57:51.089Z,73.23
2019-04-30T20:00:21.087Z,73.05
2019-04-30T20:02:50.533Z,73.35
2019-04-30T20:05:19.945Z,73.69
2019-04-30T20:07:49.436Z,73.69
2019-04-30T20:10:19.545Z,73.79
2019-04-30T20:12:49.790Z,73.70
2019-04-30T20:15:22.170Z,73.87
2019-04-30T20:17:51.564Z,73.62
2019-04-30T20:20:21.042Z,73.54
2019-04-30T20:22:51.934Z,73.81
2019-04-30T20:25:27.894Z,73.65
2019-04-30T20:27:57.283Z,73.88
2019-04-30T20:30:26.704Z,73.76
2019-04-30T20:32:56.169Z,73.82
2019-04-30T20:35:27.609Z,73.58
2019-04-30T20:38:15.953Z,73.54
2019-04-30T20:40:57.765Z,73.38
2019-04-30T20:43:18.628Z,73.40
2019-04-30T20:45:48.117Z,73.54
2019-04-30T20:48:19.147Z,73.56
2019-04-30T20:50:48.536Z,73.63
2019-04-30T20:53:19.767Z,73.53
2019-04-30T20:55:49.610Z,73.65
2019-04-30T20:58:19.004Z,73.78
2019-04-30T21:01:00.530Z,73.63
2019-04-30T21:03:19.751Z,73.71
2019-04-30T21:05:49.068Z,73.91
2019-04-30T21:08:18.409Z,73.75
2019-04-30T21:10:49.440Z,73.88
2019-04-30T21:13:19.954Z,74.16
2019-04-30T21:15:49.744Z,74.49
2019-04-30T21:18:19.527Z,74.53
2019-04-30T21:20:49.698Z,74.60
2019-04-30T21:23:19.518Z,74.81
2019-04-30T21:25:49.041Z,74.96
2019-04-30T21:28:19.757Z,75.25
2019-04-30T21:30:49.231Z,75.63
2019-04-30T21:33:31.783Z,75.69
2019-04-30T21:36:08.972Z,75.94
2019-04-30T21:38:38.978Z,75.98
2019-04-30T21:41:09.995Z,76.32
2019-04-30T21:43:39.414Z,76.67
2019-04-30T21:46:09.566Z,76.85
2019-04-30T21:48:39.022Z,77.21
2019-04-30T21:51:09.450Z,77.46
2019-04-30T21:53:39.598Z,77.64
2019-04-30T21:56:09.070Z,77.57
2019-04-30T21:58:39.196Z,76.88
2019-04-30T22:01:16.049Z,77.18
2019-04-30T22:03:46.870Z,77.36
2019-04-30T22:06:16.382Z,77.67
2019-04-30T22:08:45.727Z,77.86
2019-04-30T22:11:15.043Z,78.02
2019-04-30T22:13:44.372Z,77.87
2019-04-30T22:16:13.718Z,78.03
2019-04-30T22:18:43.034Z,77.36
2019-04-30T22:21:12.404Z,77.46
2019-04-30T22:23:41.732Z,77.64
2019-04-30T22:26:11.054Z,77.75
2019-04-30T22:28:41.312Z,77.81
2019-04-30T22:31:10.695Z,78.02
2019-04-30T22:33:40.027Z,78.11
2019-04-30T22:36:15.744Z,78.34
2019-04-30T22:39:02.888Z,78.62
2019-04-30T22:41:33.861Z,79.07
2019-04-30T22:44:03.183Z,79.35
2019-04-30T22:46:32.995Z,79.72
2019-04-30T22:49:02.383Z,80.15
2019-04-30T22:51:31.707Z,80.23
2019-04-30T22:54:01.036Z,80.58
2019-04-30T22:56:30.375Z,80.60
2019-04-30T22:58:59.731Z,80.98
2019-04-30T23:01:54.326Z,81.25
2019-04-30T23:04:44.541Z,81.59
2019-04-30T23:07:13.852Z,81.61
2019-04-30T23:09:43.210Z,81.83
2019-04-30T23:12:12.726Z,81.88
2019-04-30T23:14:42.104Z,81.97
2019-04-30T23:17:11.393Z,82.05
2019-04-30T23:19:40.730Z,82.27
2019-04-30T23:22:10.052Z,82.66
2019-04-30T23:24:39.438Z,82.54
2019-04-30T23:27:08.827Z,82.66
2019-04-30T23:29:38.178Z,82.69
2019-04-30T23:32:07.696Z,82.70
2019-04-30T23:34:37.035Z,82.90
2019-04-30T23:37:06.346Z,83.26
2019-04-30T23:39:35.719Z,83.26
2019-04-30T23:42:05.027Z,83.54
2019-04-30T23:44:34.390Z,83.70
2019-04-30T23:47:03.730Z,84.03
2019-04-30T23:49:33.595Z,84.59
2019-04-30T23:52:02.926Z,84.90
2019-04-30T23:54:32.258Z,84.89
2019-04-30T23:57:01.603Z,84.91
2019-04-30T23:59:30.917Z,85.18
